Time;durP1;ratioP1;P1;durP2;ratioP2;P2;SDS_P1;SDS_P2;PMS_P1;PMS_P2;Temp;Humidity;BMP_temperature;BMP_pressure;BME280_temperature;BME280_humidity;BME280_pressure;Samples;Min_cycle;Max_cycle;Signal;HPM_P1;HPM_P2
2022/04/26 03:37:20;;;;;;;;;;;;;;;7.40;67.82;101474.66;5068193;28;19957;-78
2022/04/26 03:39:45;;;;;;;;;;;;;;;7.38;67.82;101477.22;5069263;28;19912;-78
2022/04/26 03:42:10;;;;;;;;;;;;;;;7.39;68.01;101471.19;5068554;28;19912;-78
2022/04/26 03:44:36;;;;;;;;;;;;;;;7.40;68.00;101474.66;5069263;28;19938;-78
2022/04/26 03:47:02;;;;;;;;;;;;;;;7.37;68.04;101478.09;5068459;28;19916;-78
2022/04/26 03:49:27;;;;;;;;;;;;;;;7.36;68.08;101476.38;5069848;28;19916;-78
2022/04/26 03:51:52;;;;;;;;;;;;;;;7.35;68.12;101479.81;5067714;28;19917;-78
2022/04/26 03:54:21;;;;;;;;;;;;;;;7.33;68.56;101478.97;5068355;28;20448;-78
2022/04/26 03:56:46;;;;;;;;;;;;;;;7.31;68.87;101485.00;5071170;28;19913;-78
2022/04/26 03:59:11;;;;;;;;;;;;;;;7.27;68.54;101482.41;5071336;28;19912;-78
2022/04/26 04:01:37;;;;;;;;;;;;;;;7.28;68.28;101481.56;5064759;28;19943;-78
2022/04/26 04:04:02;;;;;;;;;;;;;;;7.29;68.78;101477.25;5068279;28;19913;-78
2022/04/26 04:06:27;;;;;;;;;;;;;;;7.28;68.52;101483.31;5070254;28;19924;-78
2022/04/26 04:08:52;;;;;;;;;;;;;;;7.30;68.56;101489.34;5069074;28;20026;-78
2022/04/26 04:11:17;;;;;;;;;;;;;;;7.28;69.45;101491.06;5066442;28;20663;-78
2022/04/26 04:13:42;;;;;;;;;;;;;;;7.27;68.86;101489.34;5069735;28;19920;-79
2022/04/26 04:16:08;;;;;;;;;;;;;;;7.28;68.89;101493.66;5068604;28;19920;-78
2022/04/26 04:21:16;;;;;;;;;;;;;;;7.27;69.83;101504.88;5066848;28;19938;-78
2022/04/26 04:23:42;;;;;;;;;;;;;;;7.26;69.63;101509.16;5068620;28;20359;-78
2022/04/26 04:26:07;;;;;;;;;;;;;;;7.28;69.42;101501.41;5068125;28;19928;-78
2022/04/26 04:28:33;;;;;;;;;;;;;;;7.28;69.58;101504.00;5068801;28;20354;-78
2022/04/26 04:30:59;;;;;;;;;;;;;;;7.28;70.65;101504.00;5067130;28;19928;-78
2022/04/26 04:33:24;;;;;;;;;;;;;;;7.28;69.83;101506.59;5068656;28;20007;-78
2022/04/26 04:35:49;;;;;;;;;;;;;;;7.28;70.11;101504.00;5066717;28;19930;-78
2022/04/26 04:38:14;;;;;;;;;;;;;;;7.29;69.68;101513.50;5069840;28;19921;-78
2022/04/26 04:40:39;;;;;;;;;;;;;;;7.29;69.45;101518.66;5067906;28;19912;-78
2022/04/26 04:43:05;;;;;;;;;;;;;;;7.30;69.92;101520.41;5067095;28;19974;-78
2022/04/26 04:45:30;;;;;;;;;;;;;;;7.27;70.21;101516.06;5066460;28;19920;-78
2022/04/26 04:47:56;;;;;;;;;;;;;;;7.27;70.70;101528.16;5069503;28;20406;-78
2022/04/26 04:50:21;;;;;;;;;;;;;;;7.27;69.96;101533.34;5067466;28;19920;-78
2022/04/26 04:52:47;;;;;;;;;;;;;;;7.27;70.86;101533.34;5068984;28;20434;-78
2022/04/26 04:55:13;;;;;;;;;;;;;;;7.28;70.64;101542.81;5068708;28;19913;-78
2022/04/26 04:57:38;;;;;;;;;;;;;;;7.30;70.65;101543.69;5072713;28;19920;-78
2022/04/26 05:00:03;;;;;;;;;;;;;;;7.28;70.97;101541.09;5054390;28;20248;-78
2022/04/26 05:02:28;;;;;;;;;;;;;;;7.29;70.81;101541.97;5050953;28;20375;-78
2022/04/26 05:04:53;;;;;;;;;;;;;;;7.27;71.13;101543.69;5069933;28;20003;-78
2022/04/26 05:07:19;;;;;;;;;;;;;;;7.28;70.40;101548.84;5071406;28;20406;-78
2022/04/26 05:09:44;;;;;;;;;;;;;;;7.29;70.95;101549.72;5070087;28;19944;-78
2022/04/26 05:12:10;;;;;;;;;;;;;;;7.29;71.00;101557.50;5068653;28;19913;-78
2022/04/26 05:14:35;;;;;;;;;;;;;;;7.30;70.84;101559.22;5071170;28;19912;-78
2022/04/26 05:17:00;;;;;;;;;;;;;;;7.29;71.24;101558.34;5054442;28;19913;-78
2022/04/26 05:19:25;;;;;;;;;;;;;;;7.29;71.26;101560.94;5068640;28;19925;-78
2022/04/26 05:21:50;;;;;;;;;;;;;;;7.30;70.86;101567.00;5069716;28;20347;-78
2022/04/26 05:26:59;;;;;;;;;;;;;;;7.33;70.81;101569.59;5065664;28;19927;-78
2022/04/26 05:29:24;;;;;;;;;;;;;;;7.36;70.99;101574.72;5072010;28;19920;-78
2022/04/26 05:31:50;;;;;;;;;;;;;;;7.36;70.88;101574.72;5068719;28;20240;-78
2022/04/26 05:34:15;;;;;;;;;;;;;;;7.39;71.07;101571.31;5072829;28;19912;-78
2022/04/26 05:36:40;;;;;;;;;;;;;;;7.40;71.39;101581.63;5069798;28;20374;-78
2022/04/26 05:39:05;;;;;;;;;;;;;;;7.42;72.26;101574.75;5071181;28;20356;-78
2022/04/26 05:41:30;;;;;;;;;;;;;;;7.42;71.53;101579.06;5053681;28;19912;-78
2022/04/26 05:43:56;;;;;;;;;;;;;;;7.44;71.30;101580.78;5070032;28;19927;-78
2022/04/26 05:46:21;;;;;;;;;;;;;;;7.48;71.11;101585.97;5069489;28;19959;-78
2022/04/26 05:48:46;;;;;;;;;;;;;;;7.50;71.19;101586.81;5067795;28;20002;-78
2022/04/26 05:51:11;;;;;;;;;;;;;;;7.51;71.15;101583.38;5072229;28;19919;-78
2022/04/26 05:53:37;;;;;;;;;;;;;;;7.51;71.02;101592.00;5070528;28;19912;-78
2022/04/26 05:56:04;;;;;;;;;;;;;;;7.53;71.04;101590.28;5067891;28;20290;-78
2022/04/26 05:58:29;;;;;;;;;;;;;;;7.55;71.21;101593.72;5049357;28;20387;-78
2022/04/26 06:00:54;;;;;;;;;;;;;;;7.57;71.80;101593.72;5066244;28;19970;-80
2022/04/26 06:03:21;;;;;;;;;;;;;;;7.59;71.07;101589.41;5062085;28;19916;-80
2022/04/26 06:05:46;;;;;;;;;;;;;;;7.61;71.69;101595.44;5062519;28;19932;-79
2022/04/26 06:08:11;;;;;;;;;;;;;;;7.64;71.29;101598.03;5063286;28;19924;-78
2022/04/26 06:10:37;;;;;;;;;;;;;;;7.69;71.11;101601.44;5062603;28;19917;-78
2022/04/26 06:13:02;;;;;;;;;;;;;;;7.73;70.81;101612.69;5061241;28;19923;-78
2022/04/26 06:15:27;;;;;;;;;;;;;;;7.75;71.02;101605.78;5062306;28;19923;-78
2022/04/26 06:17:52;;;;;;;;;;;;;;;7.76;71.34;101610.09;5062904;28;19912;-80
2022/04/26 06:20:18;;;;;;;;;;;;;;;7.80;71.16;101609.22;5063631;28;19920;-79
2022/04/26 06:22:43;;;;;;;;;;;;;;;7.85;70.84;101611.81;5062308;28;19920;-79
2022/04/26 06:25:08;;;;;;;;;;;;;;;7.92;71.10;101608.31;5056397;28;19920;-79
2022/04/26 06:27:33;;;;;;;;;;;;;;;7.94;71.41;101616.97;5060773;28;20374;-79
2022/04/26 06:29:59;;;;;;;;;;;;;;;7.96;71.55;101619.53;5060648;28;19966;-78
2022/04/26 06:32:24;;;;;;;;;;;;;;;7.99;71.16;101615.22;5062225;28;19916;-79
2022/04/26 06:34:49;;;;;;;;;;;;;;;8.01;71.17;101621.28;5061369;28;20003;-81
2022/04/26 06:37:14;;;;;;;;;;;;;;;8.03;71.34;101621.25;5061004;28;20366;-78
2022/04/26 06:39:40;;;;;;;;;;;;;;;8.08;71.16;101618.66;5056301;28;20457;-77
2022/04/26 06:42:05;;;;;;;;;;;;;;;8.12;71.32;101625.56;5057907;28;19920;-79
2022/04/26 06:44:31;;;;;;;;;;;;;;;8.13;71.06;101624.69;5055922;28;19921;-79
2022/04/26 06:46:56;;;;;;;;;;;;;;;8.15;71.19;101628.16;5058123;28;20430;-79
2022/04/26 06:49:22;;;;;;;;;;;;;;;8.16;71.20;101632.47;5062107;28;19920;-80
2022/04/26 06:51:47;;;;;;;;;;;;;;;8.22;71.44;101632.44;5056700;28;20347;-79
2022/04/26 06:54:12;;;;;;;;;;;;;;;8.28;71.15;101637.59;5057203;28;19917;-79
2022/04/26 06:56:40;;;;;;;;;;;;;;;8.34;70.78;101636.72;5057992;28;19970;-79
2022/04/26 06:59:05;;;;;;;;;;;;;;;8.37;70.85;101639.31;5041378;28;19939;-79
2022/04/26 07:01:30;;;;;;;;;;;;;;;8.39;70.96;101642.75;5061922;28;20458;-79
2022/04/26 07:03:55;;;;;;;;;;;;;;;8.39;70.79;101636.69;5061224;28;19916;-79
2022/04/26 07:06:20;;;;;;;;;;;;;;;8.37;70.74;101643.63;5061885;28;19977;-79
2022/04/26 07:08:46;;;;;;;;;;;;;;;8.34;70.73;101634.13;5063883;28;19920;-79
2022/04/26 07:11:11;;;;;;;;;;;;;;;8.33;70.69;101638.47;5062335;28;19923;-80
2022/04/26 07:13:36;;;;;;;;;;;;;;;8.37;71.03;101641.03;5064193;28;19920;-80
2022/04/26 07:16:02;;;;;;;;;;;;;;;8.38;70.71;101637.56;5061239;28;19927;-80
2022/04/26 07:18:27;;;;;;;;;;;;;;;8.37;70.79;101644.47;5063398;28;20355;-79
2022/04/26 07:20:52;;;;;;;;;;;;;;;8.39;70.60;101649.66;5062188;28;19920;-80
2022/04/26 07:23:18;;;;;;;;;;;;;;;8.41;70.60;101647.91;5063053;28;20007;-79
2022/04/26 07:25:43;;;;;;;;;;;;;;;8.43;70.48;101648.78;5061657;28;20363;-80
2022/04/26 07:28:08;;;;;;;;;;;;;;;8.44;70.25;101653.09;5063214;28;19931;-80
2022/04/26 07:30:38;;;;;;;;;;;;;;;8.49;70.53;101651.41;5062060;28;19920;-80
2022/04/26 07:35:49;;;;;;;;;;;;;;;8.61;70.38;101661.72;5062081;28;19922;-80
2022/04/26 07:38:14;;;;;;;;;;;;;;;8.69;70.43;101658.22;5059312;28;20366;-78
2022/04/26 07:40:39;;;;;;;;;;;;;;;8.75;70.51;101653.00;5053112;28;19956;-81
2022/04/26 07:43:05;;;;;;;;;;;;;;;8.84;70.22;101665.94;5061303;28;19924;-80
2022/04/26 07:45:31;;;;;;;;;;;;;;;8.90;69.94;101652.91;5062419;28;19927;-80
2022/04/26 07:47:56;;;;;;;;;;;;;;;9.01;69.90;101665.81;5062671;28;19920;-79
2022/04/26 07:50:21;;;;;;;;;;;;;;;9.08;69.82;101662.34;5060943;28;19916;-80
2022/04/26 07:52:47;;;;;;;;;;;;;;;9.16;69.65;101658.81;5062729;28;19920;-91
2022/04/26 07:55:12;;;;;;;;;;;;;;;9.23;69.55;101670.88;5064000;28;21176;-80
2022/04/26 07:57:39;;;;;;;;;;;;;;;9.30;69.56;101672.59;5060163;28;19920;-81
2022/04/26 08:00:04;;;;;;;;;;;;;;;9.38;69.35;101681.16;5063854;28;19916;-80
2022/04/26 08:02:30;;;;;;;;;;;;;;;9.43;69.18;101673.34;5061655;28;19920;-81
2022/04/26 08:05:00;;;;;;;;;;;;;;;9.50;69.17;101677.63;5063984;28;19970;-81
2022/04/26 08:07:25;;;;;;;;;;;;;;;9.57;69.11;101683.63;5059919;28;19920;-81
2022/04/26 08:09:50;;;;;;;;;;;;;;;9.61;68.65;101687.94;5063356;28;19922;-80
2022/04/26 08:12:16;;;;;;;;;;;;;;;9.64;68.61;101687.03;5062009;28;19962;-80
2022/04/26 08:14:41;;;;;;;;;;;;;;;9.68;68.36;101683.53;5060353;28;19917;-81
2022/04/26 08:17:06;;;;;;;;;;;;;;;9.69;67.97;101685.28;5061545;28;20411;-81
2022/04/26 08:19:32;;;;;;;;;;;;;;;9.74;68.35;101696.47;5059933;28;19920;-80
2022/04/26 08:21:58;;;;;;;;;;;;;;;9.81;68.15;101690.34;5060446;28;19921;-82
2022/04/26 08:27:22;;;;;;;;;;;;;;;9.92;67.39;101702.38;5064210;28;19946;-81
2022/04/26 08:29:48;;;;;;;;;;;;;;;9.95;67.53;101704.94;5066050;28;20436;-81
2022/04/26 08:32:13;;;;;;;;;;;;;;;9.97;67.31;101705.81;5063431;28;20385;-82
2022/04/26 08:34:39;;;;;;;;;;;;;;;9.98;67.35;101705.81;5066149;28;19982;-82
2022/04/26 08:37:04;;;;;;;;;;;;;;;10.02;67.12;101706.63;5065323;28;20003;-82
2022/04/26 08:39:29;;;;;;;;;;;;;;;10.07;67.10;101701.38;5061425;28;20049;-82
2022/04/26 08:41:58;;;;;;;;;;;;;;;10.09;66.96;101704.84;5064254;28;19927;-82
2022/04/26 08:44:25;;;;;;;;;;;;;;;10.07;66.88;101712.66;5066442;28;19916;-82
2022/04/26 08:52:18;;;;;;;;;;;;;;;10.14;66.50;101714.31;5062134;28;19959;-82
2022/04/26 08:54:43;;;;;;;;;;;;;;;10.14;66.31;101709.09;5061365;28;19963;-82
2022/04/26 08:57:09;;;;;;;;;;;;;;;10.14;66.36;101714.31;5061089;28;20369;-82
2022/04/26 08:59:34;;;;;;;;;;;;;;;10.16;66.47;101715.16;5063641;28;20333;-81
2022/04/26 09:02:19;;;;;;;;;;;;;;;10.15;66.20;101713.44;5065372;28;19916;-82
2022/04/26 09:05:01;;;;;;;;;;;;;;;10.15;65.95;101713.44;5065911;28;19931;-82
2022/04/26 09:07:28;;;;;;;;;;;;;;;10.16;66.42;101717.75;5063839;28;20326;-82
2022/04/26 09:10:12;;;;;;;;;;;;;;;10.21;66.13;101727.25;5064642;28;19920;-82
2022/04/26 09:12:55;;;;;;;;;;;;;;;10.23;65.33;101728.97;5063556;28;19920;-82
2022/04/26 09:15:21;;;;;;;;;;;;;;;10.25;65.34;101732.41;5062606;28;19920;-82
2022/04/26 09:17:46;;;;;;;;;;;;;;;10.32;65.84;101734.06;5062895;28;19923;-82
2022/04/26 09:20:11;;;;;;;;;;;;;;;10.39;65.81;101734.91;5062768;28;19920;-81
2022/04/26 09:22:39;;;;;;;;;;;;;;;10.50;65.73;101726.13;5062797;28;20343;-79
2022/04/26 09:25:05;;;;;;;;;;;;;;;10.54;65.07;101725.22;5060301;28;19928;-78
2022/04/26 09:27:34;;;;;;;;;;;;;;;10.62;64.16;101725.97;5062243;28;19924;-80
2022/04/26 09:30:06;;;;;;;;;;;;;;;10.71;64.89;101725.00;5063283;28;19921;-80
2022/04/26 09:32:48;;;;;;;;;;;;;;;10.81;64.03;101733.56;5062267;28;19916;-80
2022/04/26 09:35:23;;;;;;;;;;;;;;;10.89;64.64;101734.34;5060262;28;19913;-81
2022/04/26 09:37:49;;;;;;;;;;;;;;;10.94;63.39;101742.94;5063232;28;19916;-80
2022/04/26 09:40:14;;;;;;;;;;;;;;;10.97;64.08;101739.44;5064204;28;20003;-79
2022/04/26 09:42:39;;;;;;;;;;;;;;;10.96;63.72;101740.31;5063215;28;19943;-81
2022/04/26 09:45:06;;;;;;;;;;;;;;;10.96;63.90;101746.38;5062257;28;20550;-80
2022/04/26 09:47:35;;;;;;;;;;;;;;;11.02;63.46;101745.44;5063078;28;19920;-80
2022/04/26 09:50:03;;;;;;;;;;;;;;;11.04;62.28;101752.34;5058814;28;19944;-81
2022/04/26 09:52:29;;;;;;;;;;;;;;;11.03;63.02;101750.63;5057285;28;20003;-80
2022/04/26 09:54:54;;;;;;;;;;;;;;;11.11;63.55;101757.47;5061537;28;20437;-81
2022/04/26 09:57:20;;;;;;;;;;;;;;;11.19;63.09;101755.63;5061660;28;20011;-80
2022/04/26 09:59:46;;;;;;;;;;;;;;;11.27;61.62;101755.53;5060265;28;20524;-81
2022/04/26 10:02:13;;;;;;;;;;;;;;;11.29;62.37;101764.19;5063369;28;19926;-83
2022/04/26 10:04:45;;;;;;;;;;;;;;;11.27;62.14;101768.56;5058923;28;20070;-82
2022/04/26 10:07:12;;;;;;;;;;;;;;;11.20;61.33;101780.81;5058329;28;20023;-83
2022/04/26 10:09:38;;;;;;;;;;;;;;;11.20;61.64;101775.59;5062373;28;19943;-82
2022/04/26 10:12:03;;;;;;;;;;;;;;;11.23;61.20;101783.38;5062494;28;19912;-82
2022/04/26 10:14:30;;;;;;;;;;;;;;;11.36;60.15;101776.22;5060493;28;19924;-81
2022/04/26 10:16:55;;;;;;;;;;;;;;;11.49;61.60;101783.00;5059412;28;19920;-82
2022/04/26 10:19:34;;;;;;;;;;;;;;;11.68;61.40;101777.53;5059590;28;19986;-82
2022/04/26 10:21:59;;;;;;;;;;;;;;;11.80;60.20;101790.38;5061558;28;19919;-82
2022/04/26 10:24:25;;;;;;;;;;;;;;;11.92;60.51;101778.88;5059180;28;19920;-82
2022/04/26 10:26:51;;;;;;;;;;;;;;;12.13;60.72;101784.63;5057768;28;20310;-81
2022/04/26 10:29:21;;;;;;;;;;;;;;;12.26;59.87;101780.06;5058299;28;19920;-81
2022/04/26 10:31:55;;;;;;;;;;;;;;;12.36;60.07;101792.09;5058683;28;20073;-81
2022/04/26 10:34:23;;;;;;;;;;;;;;;12.34;59.10;101782.53;5060939;28;19989;-81
2022/04/26 10:36:49;;;;;;;;;;;;;;;12.35;59.56;101792.97;5041532;28;20362;-80
2022/04/26 10:39:15;;;;;;;;;;;;;;;12.49;59.56;101784.03;5058389;28;19920;-81
2022/04/26 10:41:40;;;;;;;;;;;;;;;12.63;59.40;101791.59;5056402;28;19955;-81
2022/04/26 10:44:19;;;;;;;;;;;;;;;12.67;58.29;101783.69;5057949;28;20003;-82
2022/04/26 10:46:50;;;;;;;;;;;;;;;12.69;58.43;101796.69;5061108;28;19931;-82
2022/04/26 10:49:35;;;;;;;;;;;;;;;12.64;56.92;101795.94;5059222;28;19924;-82
2022/04/26 10:52:25;;;;;;;;;;;;;;;12.67;56.68;101793.25;5052001;28;20402;-81
2022/04/26 10:54:55;;;;;;;;;;;;;;;12.67;57.02;101794.13;5060211;28;20174;-81
2022/04/26 10:57:31;;;;;;;;;;;;;;;12.63;56.73;101796.81;5041909;28;19923;-81
2022/04/26 10:59:58;;;;;;;;;;;;;;;12.67;57.65;101790.63;5060790;28;19964;-81
2022/04/26 11:02:25;;;;;;;;;;;;;;;12.72;56.87;101788.81;5058602;28;19916;-80
2022/04/26 11:05:01;;;;;;;;;;;;;;;12.74;55.80;101798.31;5061744;28;19991;-80
2022/04/26 11:07:27;;;;;;;;;;;;;;;12.74;57.10;101798.31;5062314;28;20011;-81
2022/04/26 11:09:53;;;;;;;;;;;;;;;12.75;56.67;101792.22;5061754;28;20009;-80
2022/04/26 11:12:35;;;;;;;;;;;;;;;12.79;56.71;101785.19;5061299;28;19916;-81
2022/04/26 11:15:05;;;;;;;;;;;;;;;12.82;56.79;101787.72;5058506;28;20058;-82
2022/04/26 11:17:30;;;;;;;;;;;;;;;12.81;56.85;101796.44;5059839;28;19931;-82
2022/04/26 11:19:57;;;;;;;;;;;;;;;12.77;56.22;101796.53;5061611;28;19920;-81
2022/04/26 11:22:23;;;;;;;;;;;;;;;12.78;56.36;101795.66;5060914;28;20329;-86
2022/04/26 11:30:30;;;;;;;;;;;;;;;12.88;54.33;101808.50;5060357;28;20033;-80
2022/04/26 11:32:56;;;;;;;;;;;;;;;12.92;55.59;101798.84;5058554;28;19920;-80
2022/04/26 11:35:21;;;;;;;;;;;;;;;12.99;55.78;101803.06;5057123;28;19995;-81
2022/04/26 11:37:53;;;;;;;;;;;;;;;13.03;54.96;101796.00;5056682;28;20043;-80
2022/04/26 11:40:26;;;;;;;;;;;;;;;13.04;55.30;101800.34;5052137;28;21544;-80
2022/04/26 11:42:52;;;;;;;;;;;;;;;13.08;55.80;101793.31;5054707;28;19977;-79
2022/04/26 11:45:18;;;;;;;;;;;;;;;13.09;55.96;101798.50;5057178;28;20054;-80
2022/04/26 11:47:44;;;;;;;;;;;;;;;13.14;55.76;101801.91;5056709;28;19916;-81
2022/04/26 11:50:14;;;;;;;;;;;;;;;13.19;54.33;101792.19;5058239;28;19921;-81
2022/04/26 11:52:39;;;;;;;;;;;;;;;13.27;55.54;101801.63;5055838;28;19927;-81
2022/04/26 11:55:05;;;;;;;;;;;;;;;13.38;54.98;101807.47;5060916;28;19920;-80
2022/04/26 11:57:31;;;;;;;;;;;;;;;13.45;55.28;101811.72;5059486;28;20069;-80
2022/04/26 11:59:57;;;;;;;;;;;;;;;13.48;54.82;101803.81;5056567;28;20437;-80
2022/04/26 12:02:22;;;;;;;;;;;;;;;13.54;55.23;101801.94;5055697;28;19920;-78
2022/04/26 12:04:48;;;;;;;;;;;;;;;13.50;54.27;101820.28;5062422;28;19920;-81
2022/04/26 12:07:14;;;;;;;;;;;;;;;13.42;54.39;101816.13;5063412;28;20470;-80
2022/04/26 12:09:41;;;;;;;;;;;;;;;13.39;54.42;101816.19;5059857;28;19925;-76
2022/04/26 12:12:10;;;;;;;;;;;;;;;13.38;54.80;101825.78;5060429;28;19920;-80
2022/04/26 12:14:37;;;;;;;;;;;;;;;13.38;52.61;101820.53;5040930;28;19921;-79
2022/04/26 12:17:03;;;;;;;;;;;;;;;13.35;53.01;101815.38;5043251;28;20018;-79
2022/04/26 12:19:38;;;;;;;;;;;;;;;13.32;52.91;101810.25;5042662;28;19925;-81
2022/04/26 12:22:03;;;;;;;;;;;;;;;13.28;53.60;101809.41;5044803;28;19916;-81
2022/04/26 12:24:30;;;;;;;;;;;;;;;13.29;54.29;101820.75;5042535;28;20335;-80
2022/04/26 12:26:59;;;;;;;;;;;;;;;13.38;53.85;101820.53;5034275;28;19964;-79
2022/04/26 12:29:26;;;;;;;;;;;;;;;13.48;53.09;101809.03;5041072;28;19967;-81
2022/04/26 12:31:51;;;;;;;;;;;;;;;13.60;51.79;101814.88;5028494;28;19960;-81
2022/04/26 12:34:18;;;;;;;;;;;;;;;13.70;52.21;101816.38;5043393;28;19970;-81
2022/04/26 12:36:51;;;;;;;;;;;;;;;13.78;52.76;101819.69;5042994;28;19923;-81
2022/04/26 12:39:16;;;;;;;;;;;;;;;13.83;53.52;101816.09;5034689;28;19927;-80
2022/04/26 12:41:56;;;;;;;;;;;;;;;13.97;53.41;101808.78;5044882;28;19917;-80
2022/04/26 12:44:21;;;;;;;;;;;;;;;14.09;53.04;101812.84;5028753;28;21383;-79
2022/04/26 12:52:38;;;;;;;;;;;;;;;14.25;50.46;101818.53;5044630;28;19958;-79
2022/04/26 12:55:03;;;;;;;;;;;;;;;14.23;52.00;101815.09;5044821;28;20343;-81
2022/04/26 12:57:28;;;;;;;;;;;;;;;14.30;51.46;101816.69;5044288;28;19923;-80
2022/04/26 12:59:53;;;;;;;;;;;;;;;14.39;52.03;101813.81;5044114;28;19921;-81
2022/04/26 13:02:18;;;;;;;;;;;;;;;14.45;51.11;101819.78;5043822;28;19975;-80
2022/04/26 13:04:44;;;;;;;;;;;;;;;14.41;50.28;101814.63;5043422;28;19967;-81
2022/04/26 13:07:09;;;;;;;;;;;;;;;14.40;49.66;101812.91;5035656;28;19925;-79
2022/04/26 13:09:34;;;;;;;;;;;;;;;14.30;50.27;101811.44;5024808;28;19971;-87
2022/04/26 13:11:59;;;;;;;;;;;;;;;14.27;48.10;101814.13;5031218;28;20395;-81
2022/04/26 13:14:26;;;;;;;;;;;;;;;14.32;50.56;101804.41;5036197;28;19923;-81
2022/04/26 13:16:51;;;;;;;;;;;;;;;14.36;49.63;101810.41;5034991;28;19979;-81
2022/04/26 13:19:16;;;;;;;;;;;;;;;14.42;49.51;101808.50;5031315;28;19928;-81
2022/04/26 13:21:42;;;;;;;;;;;;;;;14.50;48.85;101800.44;5038059;28;20310;-80
2022/04/26 13:24:07;;;;;;;;;;;;;;;14.47;49.22;101803.13;5034107;28;19923;-80
2022/04/26 13:26:35;;;;;;;;;;;;;;;14.53;49.24;101802.09;5035138;28;19920;-81
2022/04/26 13:29:00;;;;;;;;;;;;;;;14.66;48.19;101813.13;5041011;28;19920;-80
2022/04/26 13:31:25;;;;;;;;;;;;;;;14.76;46.08;101805.88;5041856;28;20037;-80
2022/04/26 13:33:51;;;;;;;;;;;;;;;14.83;48.52;101804.84;5038653;28;19924;-80
2022/04/26 13:36:17;;;;;;;;;;;;;;;14.84;48.72;101806.56;5040481;28;19921;-81
2022/04/26 13:38:42;;;;;;;;;;;;;;;14.88;47.32;101802.91;5038764;28;20007;-81
2022/04/26 13:41:08;;;;;;;;;;;;;;;14.84;47.70;101811.78;5036249;28;20039;-82
2022/04/26 13:43:33;;;;;;;;;;;;;;;14.85;47.28;101809.13;5036375;28;20363;-82
2022/04/26 13:45:58;;;;;;;;;;;;;;;14.97;48.04;101813.16;5035493;28;19928;-81
2022/04/26 13:48:23;;;;;;;;;;;;;;;14.97;45.61;101813.16;5039316;28;20134;-81
2022/04/26 13:50:48;;;;;;;;;;;;;;;14.96;48.28;101807.94;5036397;28;19921;-81
2022/04/26 13:53:13;;;;;;;;;;;;;;;15.17;48.78;101807.31;5041590;28;19927;-82
2022/04/26 13:55:39;;;;;;;;;;;;;;;15.30;48.04;101818.31;5037443;28;20031;-82
2022/04/26 13:58:08;;;;;;;;;;;;;;;15.33;47.93;101812.97;5040452;28;20437;-81
2022/04/26 14:00:35;;;;;;;;;;;;;;;15.39;48.23;101814.56;5020504;28;19952;-81
2022/04/26 14:03:00;;;;;;;;;;;;;;;15.29;47.18;101813.97;5024099;28;19943;-81
2022/04/26 14:05:27;;;;;;;;;;;;;;;15.16;46.51;101816.09;5038013;28;20367;-81
2022/04/26 14:07:52;;;;;;;;;;;;;;;15.12;47.10;101826.72;5040395;28;19955;-82
2022/04/26 14:10:17;;;;;;;;;;;;;;;15.08;47.14;101823.34;5042843;28;20359;-81
2022/04/26 14:12:43;;;;;;;;;;;;;;;15.11;47.86;101820.63;5021423;28;19920;-82
2022/04/26 14:23:20;;;;;;;;;;;;;;;15.06;45.90;101826.88;5060268;28;20792;-82
2022/04/26 14:25:45;;;;;;;;;;;;;;;15.02;47.02;101824.38;5061330;28;19917;-81
2022/04/26 14:28:10;;;;;;;;;;;;;;;14.96;45.68;101831.53;5060890;28;19935;-82
2022/04/26 14:30:36;;;;;;;;;;;;;;;14.89;46.35;101830.84;5060031;28;20378;-82
2022/04/26 14:33:01;;;;;;;;;;;;;;;14.87;46.69;101828.28;5043016;28;19925;-82
2022/04/26 14:35:29;;;;;;;;;;;;;;;14.87;46.44;101832.63;5060399;28;19929;-82
2022/04/26 14:37:54;;;;;;;;;;;;;;;14.86;46.20;101836.16;5060187;28;20279;-82
2022/04/26 14:40:19;;;;;;;;;;;;;;;14.85;47.02;101837.09;5060497;28;19916;-81
2022/04/26 14:42:46;;;;;;;;;;;;;;;14.95;46.76;101828.06;5060479;28;20053;-81
2022/04/26 14:45:12;;;;;;;;;;;;;;;14.99;46.50;101837.56;5040772;28;19920;-82
2022/04/26 14:47:37;;;;;;;;;;;;;;;14.97;45.52;101834.13;5054812;28;19928;-82
2022/04/26 14:50:04;;;;;;;;;;;;;;;14.95;45.56;101833.28;5060446;28;19916;-81
2022/04/26 14:52:30;;;;;;;;;;;;;;;14.90;45.80;101832.56;5040730;28;19920;-80
2022/04/26 14:54:57;;;;;;;;;;;;;;;14.83;45.39;101831.88;5059748;28;19916;-81
2022/04/26 14:57:22;;;;;;;;;;;;;;;15.10;45.65;101836.38;5040561;28;19912;-82
2022/04/26 14:59:48;;;;;;;;;;;;;;;15.25;43.57;101838.56;5059103;28;19927;-81
2022/04/26 15:02:14;;;;;;;;;;;;;;;15.30;45.60;101836.66;5040301;28;19975;-82
2022/04/26 15:04:40;;;;;;;;;;;;;;;15.75;44.37;101831.81;5062891;28;19916;-81
2022/04/26 15:07:05;;;;;;;;;;;;;;;15.72;44.24;101834.53;5060369;28;20047;-81
2022/04/26 15:09:52;;;;;;;;;;;;;;;15.57;43.83;101839.34;5061419;28;19916;-82
2022/04/26 15:17:48;;;;;;;;;;;;;;;15.37;44.23;101836.50;5060354;28;19936;-81
2022/04/26 15:20:15;;;;;;;;;;;;;;;15.55;44.82;101835.91;5061100;28;20039;-81
2022/04/26 15:22:41;;;;;;;;;;;;;;;16.41;42.70;101834.03;5061666;28;19912;-81
2022/04/26 15:25:07;;;;;;;;;;;;;;;17.60;43.28;101839.38;5060848;28;19927;-82
2022/04/26 15:27:34;;;;;;;;;;;;;;;18.49;42.25;101834.88;5043721;28;19920;-80
2022/04/26 15:29:59;;;;;;;;;;;;;;;19.10;39.92;101834.88;5059360;28;20248;-81
2022/04/26 15:32:25;;;;;;;;;;;;;;;19.50;37.62;101827.72;5063424;28;20367;-81
2022/04/26 15:34:50;;;;;;;;;;;;;;;19.93;36.64;101837.16;5062076;28;19931;-82
2022/04/26 15:37:16;;;;;;;;;;;;;;;20.80;37.73;101836.28;5061620;28;19920;-81
2022/04/26 15:39:42;;;;;;;;;;;;;;;21.72;37.03;101844.53;5064030;28;20407;-82
2022/04/26 15:42:07;;;;;;;;;;;;;;;22.58;35.18;101847.47;5063121;28;19912;-82
2022/04/26 15:44:33;;;;;;;;;;;;;;;23.26;34.82;101842.44;5063324;28;19916;-81
2022/04/26 15:46:58;;;;;;;;;;;;;;;24.06;34.09;101843.50;5059164;28;20416;-82
2022/04/26 15:49:28;;;;;;;;;;;;;;;24.82;34.16;101841.00;5059175;28;19923;-81
2022/04/26 15:51:57;;;;;;;;;;;;;;;25.52;29.71;101855.53;5061263;28;19978;-82
2022/04/26 15:54:23;;;;;;;;;;;;;;;25.75;31.32;101848.50;5043549;28;19913;-81
2022/04/26 15:56:48;;;;;;;;;;;;;;;26.01;30.02;101844.84;5060469;28;19920;-82
2022/04/26 15:59:13;;;;;;;;;;;;;;;26.27;31.08;101847.38;5063339;28;19927;-81
2022/04/26 16:01:42;;;;;;;;;;;;;;;26.93;29.47;101852.06;5060066;28;20385;-82
2022/04/26 16:04:09;;;;;;;;;;;;;;;27.42;28.65;101845.41;5063368;28;20367;-81
2022/04/26 16:06:37;;;;;;;;;;;;;;;27.48;29.05;101838.75;5060427;28;19923;-82
2022/04/26 16:22:42;;;;;;;;;;;;;;;29.09;26.48;101845.66;5060668;28;20006;-81
2022/04/26 16:25:07;;;;;;;;;;;;;;;29.16;26.78;101846.81;5062569;28;19954;-81
2022/04/26 16:27:33;;;;;;;;;;;;;;;29.47;26.33;101851.25;5059719;28;19947;-81
2022/04/26 16:30:01;;;;;;;;;;;;;;;29.59;23.32;101860.00;5061941;28;19959;-81
2022/04/26 16:32:29;;;;;;;;;;;;;;;29.28;24.77;101852.03;5039006;28;19924;-80
2022/04/26 16:34:56;;;;;;;;;;;;;;;28.46;25.91;101847.50;5060862;28;19916;-81
2022/04/26 16:37:22;;;;;;;;;;;;;;;26.98;26.61;101857.91;5041749;28;19916;-81
2022/04/26 16:39:47;;;;;;;;;;;;;;;27.17;26.34;101854.59;5039192;28;19923;-81
2022/04/26 16:42:12;;;;;;;;;;;;;;;27.39;25.73;101859.03;5060663;28;19921;-80
2022/04/26 16:44:37;;;;;;;;;;;;;;;27.43;24.49;101856.94;5058266;28;20010;-82
2022/04/26 16:47:03;;;;;;;;;;;;;;;27.74;25.20;101866.97;5044186;28;19927;-81
2022/04/26 16:49:30;;;;;;;;;;;;;;;27.96;25.78;101861.53;5057012;28;20015;-80
2022/04/26 16:51:55;;;;;;;;;;;;;;;28.22;21.98;101866.50;5058850;28;20375;-81
2022/04/26 16:54:20;;;;;;;;;;;;;;;28.29;23.39;101872.19;5058833;28;19921;-81
2022/04/26 16:56:46;;;;;;;;;;;;;;;28.43;23.63;101871.88;5063760;28;20010;-82
2022/04/26 16:59:13;;;;;;;;;;;;;;;28.39;23.46;101867.75;5063060;28;20390;-82
2022/04/26 17:01:38;;;;;;;;;;;;;;;28.41;23.99;101878.31;5064905;28;19927;-82
2022/04/26 17:04:10;;;;;;;;;;;;;;;28.63;22.92;101875.50;5056965;28;20235;-82
2022/04/26 17:06:35;;;;;;;;;;;;;;;28.69;22.58;101882.13;5058838;28;19920;-82
2022/04/26 17:09:01;;;;;;;;;;;;;;;28.78;22.44;101877.84;5058027;28;19964;-81